2PN5 weather

Baker-Sell Airport
Woodbury, Pennsylvania, United States

Public forecast

Using degrees Fahrenheit for public forecast. Weather courtesy of forecast.io.

METAR (pilot weather report)

Closest report is Altoona Blair County Airport, 3.4 nm (6.4 km) NNE. Retrieved 2019/05/21 00:53 UTC (12 minutes ago):

KAOO 210053Z AUTO 31012G21KT 10SM CLR 19/09 A2992 RMK AO2 SLP125 T01890094

TAF (pilot weather forecast)

Closest forecast is Altoona Blair County Airport, 3.4 nm (6.4 km) NNE. Retrieved 2019/05/21 00:00 UTC (1 hour ago):

TAF KAOO 202357Z 2100/2124 29012KT P6SM SKC FM210200 31011KT P6SM BKN035 FM211500 34011G18KT P6SM SKC